Terminal Aerodrome Forecast
Issued by NWS Des Moines, IA

Home | Current Version | Previous Version | Text Only | Print | Product List | Glossary On
Versions: 1 2 3 4 5 6 7 8 9 10 11 12 13 14 15 16 17 18 19 20 21 22 23
000
FTUS43 KDMX 150710 AAD
TAFDSM
TAF AMD
KDSM 150710Z 1507/1606 35008KT P6SM BKN025
      TEMPO 1507/1509 -FZDZSN BKN017
     FM151000 28011KT P6SM BKN040
     FM151900 25010G19KT P6SM BKN100
     FM152300 23007KT P6SM SCT150=

USA.gov is the U.S. government's official web portal to all federal, state and local government web resources and services.